createdAt,value
2023-04-26T06:21:08.856Z,4.74
2023-04-26T06:31:09.035Z,4.86
2023-04-26T06:41:08.948Z,5.36
2023-04-26T06:51:09.008Z,5.43
2023-04-26T07:01:08.951Z,5.63
2023-04-26T07:11:09.072Z,5.83
2023-04-26T07:21:09.050Z,6.25
2023-04-26T07:31:10.624Z,5.90
2023-04-26T07:41:09.288Z,6.09
2023-04-26T07:51:08.923Z,5.82
2023-04-26T08:01:09.417Z,5.96
2023-04-26T08:11:09.184Z,6.50
2023-04-26T08:21:09.353Z,6.39
2023-04-26T08:31:09.538Z,6.64
2023-04-26T08:41:09.675Z,7.01
2023-04-26T08:51:09.408Z,7.15
2023-04-26T09:01:09.455Z,7.21
2023-04-26T09:11:09.455Z,7.25
2023-04-26T09:21:09.394Z,8.10
2023-04-26T09:31:09.516Z,7.39
2023-04-26T09:41:09.321Z,7.51
2023-04-26T09:51:10.352Z,7.59
2023-04-26T10:01:09.519Z,7.20
2023-04-26T10:11:09.443Z,7.72
2023-04-26T10:21:09.249Z,7.41
2023-04-26T10:31:10.484Z,7.29
2023-04-26T10:41:09.357Z,7.56
2023-04-26T10:51:09.309Z,8.48
2023-04-26T11:01:09.598Z,8.17
2023-04-26T11:11:09.536Z,8.66
2023-04-26T11:21:09.196Z,8.09
2023-04-26T11:31:09.519Z,8.25
2023-04-26T11:41:09.262Z,8.12
2023-04-26T11:51:09.474Z,8.82
2023-04-26T12:01:09.361Z,8.48
2023-04-26T12:11:09.296Z,8.67
2023-04-26T12:21:09.271Z,9.67
2023-04-26T12:31:09.719Z,10.19
2023-04-26T12:41:09.319Z,8.73
2023-04-26T12:51:09.505Z,8.46
2023-04-26T13:01:09.594Z,8.31
2023-04-26T13:11:09.320Z,8.57
2023-04-26T13:21:09.392Z,8.32
2023-04-26T13:31:09.492Z,8.83
2023-04-26T13:41:09.337Z,8.46
2023-04-26T13:51:09.571Z,8.58
2023-04-26T14:01:09.389Z,9.51
2023-04-26T14:11:09.315Z,9.15
2023-04-26T14:21:09.449Z,9.28
2023-04-26T14:31:09.317Z,10.30
2023-04-26T14:41:09.339Z,9.20
2023-04-26T14:51:09.469Z,8.95
2023-04-26T15:01:09.514Z,8.59
2023-04-26T15:11:09.556Z,8.18
2023-04-26T15:21:09.457Z,8.18
2023-04-26T15:31:09.398Z,8.45
2023-04-26T15:41:09.359Z,9.02
2023-04-26T15:51:09.346Z,8.89
2023-04-26T16:01:09.743Z,8.88
2023-04-26T16:11:09.337Z,8.71
2023-04-26T16:21:09.854Z,8.91
2023-04-26T16:31:09.519Z,8.75
2023-04-26T16:41:09.565Z,8.86
2023-04-26T16:51:09.617Z,8.45
2023-04-26T17:01:09.664Z,8.17
2023-04-26T17:11:09.545Z,7.91
2023-04-26T17:21:09.466Z,7.63
2023-04-26T17:31:09.693Z,7.62
2023-04-26T17:41:09.731Z,7.67
2023-04-26T17:51:09.730Z,7.57
2023-04-26T18:01:09.626Z,7.46
2023-04-26T18:11:09.754Z,7.36
2023-04-26T18:21:09.701Z,7.28
2023-04-26T18:31:09.605Z,6.85
2023-04-26T18:41:09.796Z,6.77
2023-04-26T18:51:09.718Z,6.64
2023-04-26T19:01:09.999Z,6.48
2023-04-26T19:11:10.039Z,6.47
2023-04-26T19:21:10.140Z,6.33
